Time;durP1;ratioP1;P1;durP2;ratioP2;P2;SDS_P1;SDS_P2;PMS_P1;PMS_P2;Temp;Humidity;BMP_temperature;BMP_pressure;BME280_temperature;BME280_humidity;BME280_pressure;Samples;Min_cycle;Max_cycle;Signal;HPM_P1;HPM_P2
2023/07/09 00:06:27;;;;;;;4.15;3.75;;;;;;;27.25;39.26;100797.56;20993281;28;20094;-74
2023/07/09 00:16:29;;;;;;;3.92;3.63;;;;;;;27.22;39.03;100801.03;20994014;28;20073;-74
2023/07/09 00:26:33;;;;;;;4.00;3.65;;;;;;;27.01;38.54;100799.97;20994375;28;20053;-73
2023/07/09 00:36:35;;;;;;;4.00;3.60;;;;;;;27.07;38.01;100826.72;20994709;28;20442;-73
2023/07/09 00:46:36;;;;;;;4.03;3.63;;;;;;;27.00;37.64;100824.41;20992784;28;20549;-74
2023/07/09 00:56:44;;;;;;;4.57;4.18;;;;;;;26.91;37.66;100840.41;20992882;28;20057;-75
2023/07/09 01:06:54;;;;;;;3.72;3.42;;;;;;;26.81;37.59;100821.88;20999147;28;20101;-73
2023/07/09 01:17:01;;;;;;;3.53;3.22;;;;;;;26.76;37.32;100804.34;21006493;28;20438;-74
2023/07/09 01:27:07;;;;;;;3.80;3.50;;;;;;;26.66;37.29;100824.25;21004766;28;20066;-74
2023/07/09 01:37:08;;;;;;;3.97;3.58;;;;;;;26.66;36.91;100861.56;21004695;28;20045;-76
2023/07/09 01:47:10;;;;;;;4.25;3.85;;;;;;;26.64;37.03;100866.69;21003741;28;20044;-75
2023/07/09 01:57:22;;;;;;;4.20;3.80;;;;;;;26.64;36.84;100877.91;21003402;28;20563;-75
2023/07/09 02:07:24;;;;;;;4.10;3.70;;;;;;;26.38;36.73;100872.09;21001904;28;20045;-74
2023/07/09 02:17:26;;;;;;;3.42;3.13;;;;;;;26.40;36.61;100874.59;20999218;28;20337;-74
2023/07/09 02:27:28;;;;;;;3.97;3.55;;;;;;;26.31;36.43;100872.56;21000979;28;20036;-75
2023/07/09 02:37:29;;;;;;;4.03;3.63;;;;;;;26.46;36.79;100907.03;20999342;28;20500;-75
2023/07/09 02:47:31;;;;;;;4.28;3.88;;;;;;;26.45;36.83;100917.41;20997623;28;20078;-76
2023/07/09 02:57:32;;;;;;;3.30;3.00;;;;;;;26.40;36.61;100928.75;20996774;28;20086;-76
2023/07/09 03:07:36;;;;;;;3.88;3.47;;;;;;;26.35;36.55;100917.66;20996358;28;20040;-75
2023/07/09 03:17:37;;;;;;;3.40;3.10;;;;;;;26.30;36.28;100915.81;20996492;28;20102;-75
2023/07/09 03:27:42;;;;;;;3.33;3.03;;;;;;;26.24;36.19;100919.84;20994640;28;20029;-75
2023/07/09 03:37:43;;;;;;;4.00;3.65;;;;;;;26.26;36.48;100897.13;20996332;28;20044;-75
2023/07/09 03:47:44;;;;;;;3.40;3.10;;;;;;;26.18;36.59;100884.69;20994277;28;20126;-74
2023/07/09 03:57:46;;;;;;;3.60;3.30;;;;;;;26.21;36.26;100881.25;20994245;28;20044;-77
2023/07/09 04:07:47;;;;;;;3.40;3.10;;;;;;;26.20;35.96;100916.03;20993344;28;20090;-76
2023/07/09 04:17:52;;;;;;;4.63;3.90;;;;;;;26.16;36.16;100901.00;20994552;28;20044;-76
2023/07/09 04:27:54;;;;;;;3.90;3.50;;;;;;;26.12;35.95;100899.97;20993788;28;20032;-77
2023/07/09 04:37:58;;;;;;;3.50;3.20;;;;;;;26.06;35.92;100920.84;20994248;28;20041;-76
2023/07/09 04:47:59;;;;;;;4.00;3.60;;;;;;;26.03;35.85;100910.28;21007037;28;20040;-76
2023/07/09 04:58:01;;;;;;;3.78;3.38;;;;;;;26.10;37.26;100921.88;21006312;28;20040;-75
2023/07/09 05:08:02;;;;;;;4.10;3.70;;;;;;;26.35;41.00;100904.44;21006641;28;20037;-74
2023/07/09 05:18:07;;;;;;;3.88;3.42;;;;;;;26.53;43.14;100902.63;21005767;28;20070;-75
2023/07/09 05:28:09;;;;;;;3.85;3.55;;;;;;;26.69;44.62;100914.28;21004798;28;20036;-75
2023/07/09 05:38:10;;;;;;;3.63;3.33;;;;;;;26.83;45.18;100909.38;21004275;28;20037;-74
2023/07/09 05:48:12;;;;;;;4.25;3.58;;;;;;;26.99;44.87;100917.41;21002071;28;20392;-74
2023/07/09 05:58:13;;;;;;;3.40;3.10;;;;;;;27.11;44.77;100923.25;21002076;28;20044;-73
2023/07/09 06:08:15;;;;;;;3.83;3.42;;;;;;;27.20;45.20;100898.84;21002276;28;20024;-74
2023/07/09 06:18:16;;;;;;;4.00;3.60;;;;;;;27.29;45.51;100891.28;21001031;28;20052;-74
2023/07/09 06:28:23;;;;;;;3.35;3.05;;;;;;;27.34;45.39;100882.69;21024768;28;20513;-74
2023/07/09 06:38:29;;;;;;;3.08;2.88;;;;;;;27.42;45.67;100878.25;21041466;28;20092;-74
2023/07/09 06:48:33;;;;;;;3.53;3.17;;;;;;;27.44;45.42;100875.13;21012684;28;20052;-74
2023/07/09 06:58:36;;;;;;;3.63;3.33;;;;;;;27.42;45.81;100878.25;20997750;28;20045;-73
2023/07/09 07:08:38;;;;;;;3.80;3.15;;;;;;;27.60;45.54;100891.19;20996043;28;20045;-74
2023/07/09 07:18:42;;;;;;;3.33;3.03;;;;;;;27.55;45.85;100877.31;20996589;28;20060;-73
2023/07/09 07:28:43;;;;;;;3.90;3.60;;;;;;;27.58;45.74;100862.59;20995633;28;20044;-74
2023/07/09 07:38:45;;;;;;;3.53;3.22;;;;;;;27.74;45.74;100871.41;20994734;28;20078;-74
2023/07/09 07:48:46;;;;;;;3.45;3.15;;;;;;;27.75;45.62;100852.53;20992780;28;20070;-73
2023/07/09 07:58:50;;;;;;;3.13;2.83;;;;;;;27.82;45.67;100853.72;20993729;28;20036;-74
2023/07/09 08:08:52;;;;;;;3.70;3.38;;;;;;;27.85;45.84;100853.03;20992983;28;20028;-73
2023/07/09 08:18:53;;;;;;;3.20;2.90;;;;;;;27.87;45.68;100844.28;21005146;28;20035;-73
2023/07/09 08:28:54;;;;;;;3.42;3.13;;;;;;;27.94;45.64;100855.03;21009376;28;20387;-73
2023/07/09 08:38:56;;;;;;;3.10;2.80;;;;;;;27.97;45.66;100854.38;21008367;28;20404;-73
2023/07/09 08:49:02;;;;;;;3.38;3.08;;;;;;;27.88;45.56;100833.88;21007669;28;20032;-72
2023/07/09 08:59:04;;;;;;;2.80;2.60;;;;;;;27.95;45.47;100839.81;21006288;28;20048;-74
2023/07/09 09:09:30;;;;;;;3.45;3.15;;;;;;;28.03;45.64;100847.41;21005124;28;20098;-73
2023/07/09 09:19:38;;;;;;;3.15;2.85;;;;;;;28.07;45.43;100854.03;21005285;28;20403;-74
2023/07/09 09:29:42;;;;;;;3.03;2.72;;;;;;;27.75;45.17;100814.00;21004880;28;20043;-74
2023/07/09 09:39:43;;;;;;;3.08;2.78;;;;;;;28.08;45.44;100862.13;21003303;28;20446;-74
2023/07/09 09:49:45;;;;;;;2.95;2.70;;;;;;;28.14;45.52;100865.63;21003296;28;20044;-74
2023/07/09 09:59:47;;;;;;;3.00;2.80;;;;;;;28.08;45.50;100862.13;21002308;28;20105;-73
2023/07/09 10:09:51;;;;;;;2.75;2.53;;;;;;;28.14;45.45;100851.56;21000948;28;20098;-74
2023/07/09 10:20:29;;;;;;;2.72;2.53;;;;;;;28.15;45.25;100861.66;21000779;28;20029;-73
2023/07/09 10:30:36;;;;;;;2.57;2.37;;;;;;;28.22;45.49;100867.56;20999227;28;20044;-73
2023/07/09 10:40:59;;;;;;;2.83;2.53;;;;;;;28.18;45.54;100855.38;20997817;28;20036;-74
2023/07/09 10:51:02;;;;;;;3.13;2.83;;;;;;;28.26;45.49;100867.75;20998619;28;20016;-74
2023/07/09 11:01:04;;;;;;;2.58;2.38;;;;;;;28.27;45.59;100866.59;20997256;28;20442;-74
2023/07/09 11:11:13;;;;;;;2.85;2.65;;;;;;;28.25;45.39;100866.09;20995100;28;20036;-74
2023/07/09 11:21:17;;;;;;;3.10;2.85;;;;;;;28.29;45.49;100881.16;20996878;28;20039;-74
2023/07/09 11:31:34;;;;;;;3.10;2.90;;;;;;;28.28;45.47;100880.34;20995500;28;20066;-72
2023/07/09 11:41:39;;;;;;;2.70;2.50;;;;;;;28.33;45.40;100879.34;20994489;28;20557;-73
2023/07/09 11:51:51;;;;;;;2.45;2.25;;;;;;;28.33;45.60;100885.78;20993353;28;20052;-74
2023/07/09 12:02:00;;;;;;;2.65;2.45;;;;;;;28.36;45.71;100884.31;20994110;28;20102;-74
2023/07/09 12:12:05;;;;;;;2.70;2.50;;;;;;;28.38;45.67;100887.63;20993224;28;20036;-72
2023/07/09 12:22:19;;;;;;;2.50;2.30;;;;;;;28.25;45.54;100877.34;20990450;28;20041;-73
2023/07/09 12:32:26;;;;;;;2.50;2.30;;;;;;;28.30;45.55;100875.19;20992433;28;20029;-73
2023/07/09 12:42:33;;;;;;;2.53;2.33;;;;;;;28.43;45.52;100889.44;20991345;28;20053;-73
2023/07/09 12:52:44;;;;;;;2.40;2.20;;;;;;;28.44;45.46;100902.34;20991519;28;20029;-74
2023/07/09 13:02:55;;;;;;;2.78;2.58;;;;;;;28.36;45.73;100885.16;21000438;28;20078;-73
2023/07/09 13:13:06;;;;;;;2.33;2.13;;;;;;;28.38;45.82;100876.38;21005154;28;20036;-74
2023/07/09 13:23:29;;;;;;;1.90;1.80;;;;;;;28.44;45.87;100879.84;21005202;28;20040;-72
2023/07/09 13:33:33;;;;;;;2.35;2.15;;;;;;;28.48;45.87;100876.03;21003967;28;20036;-73
2023/07/09 13:43:44;;;;;;;2.35;2.15;;;;;;;28.44;45.81;100857.31;21001245;28;20071;-73
2023/07/09 13:53:54;;;;;;;2.45;2.25;;;;;;;28.45;45.63;100848.53;21002978;28;20561;-73
2023/07/09 14:04:00;;;;;;;2.60;2.40;;;;;;;28.49;45.69;100857.13;21002905;28;20059;-73
2023/07/09 14:14:37;;;;;;;2.30;2.10;;;;;;;28.47;46.02;100862.28;21000889;28;20032;-73
2023/07/09 14:24:39;;;;;;;2.38;2.17;;;;;;;28.41;45.92;100829.84;20999683;28;20045;-73
2023/07/09 14:34:40;;;;;;;2.55;2.35;;;;;;;28.56;45.97;100843.41;20999552;28;20048;-74
2023/07/09 14:44:42;;;;;;;2.80;2.58;;;;;;;28.55;46.11;100822.03;20999348;28;20090;-73
2023/07/09 14:54:45;;;;;;;2.42;2.22;;;;;;;28.55;46.07;100822.03;21036532;28;20074;-72
2023/07/09 15:04:46;;;;;;;2.30;2.10;;;;;;;28.59;45.88;100809.78;21049588;28;20040;-73
2023/07/09 15:14:48;;;;;;;2.75;2.55;;;;;;;28.60;46.01;100771.19;20998492;28;20036;-72
2023/07/09 15:24:50;;;;;;;2.55;2.35;;;;;;;28.65;46.05;100789.88;20995593;28;20040;-73
2023/07/09 15:34:54;;;;;;;2.50;2.30;;;;;;;28.62;46.06;100785.72;20995557;28;20040;-72
2023/07/09 15:44:55;;;;;;;2.80;2.60;;;;;;;28.66;46.20;100781.09;20994138;28;20048;-73
2023/07/09 15:54:57;;;;;;;2.55;2.30;;;;;;;28.67;46.07;100787.53;20993167;28;20032;-72
2023/07/09 16:05:01;;;;;;;2.72;2.53;;;;;;;28.69;46.05;100783.22;20993345;28;20047;-72
2023/07/09 16:15:05;;;;;;;3.28;2.97;;;;;;;28.69;46.00;100780.41;20991882;28;20089;-73
2023/07/09 16:25:14;;;;;;;2.65;2.45;;;;;;;28.70;46.40;100741.81;20992685;28;20029;-74
2023/07/09 16:35:18;;;;;;;3.30;3.00;;;;;;;28.60;46.39;100721.31;20998993;28;20032;-74
2023/07/09 16:45:24;;;;;;;2.75;2.55;;;;;;;28.72;46.22;100729.03;21009816;28;20049;-73
2023/07/09 16:55:27;;;;;;;3.15;2.85;;;;;;;28.59;46.30;100685.06;21007941;28;20472;-74
2023/07/09 17:05:32;;;;;;;3.28;2.97;;;;;;;28.33;44.13;100700.06;21007273;28;20040;-73
2023/07/09 17:15:39;;;;;;;3.17;2.88;;;;;;;27.91;43.23;100670.09;21008453;28;20028;-74
2023/07/09 17:25:41;;;;;;;3.10;2.80;;;;;;;27.79;42.52;100673.59;21006797;28;20037;-74
2023/07/09 17:35:44;;;;;;;3.50;3.20;;;;;;;27.56;41.97;100648.47;21004450;28;20040;-72
2023/07/09 17:45:45;;;;;;;3.30;3.00;;;;;;;27.58;41.25;100663.03;21002947;28;20048;-74
2023/07/09 17:55:48;;;;;;;3.40;3.10;;;;;;;27.51;40.76;100645.03;21003480;28;20041;-74
2023/07/09 18:05:56;;;;;;;4.50;3.70;;;;;;;27.46;40.98;100648.81;21006819;28;20036;-73
2023/07/09 18:15:58;;;;;;;3.88;3.58;;;;;;;27.42;41.07;100647.00;21005732;28;20489;-73
2023/07/09 18:26:02;;;;;;;3.67;3.38;;;;;;;27.36;40.96;100624.72;20999971;28;20033;-74
2023/07/09 18:36:03;;;;;;;4.05;3.65;;;;;;;27.27;41.31;100607.03;20999819;28;20033;-75
2023/07/09 18:46:07;;;;;;;4.47;3.55;;;;;;;27.20;41.19;100606.69;20999015;28;20040;-73
2023/07/09 18:56:08;;;;;;;4.05;3.65;;;;;;;27.19;40.69;100605.06;20997701;28;20086;-74
2023/07/09 19:06:11;;;;;;;4.25;3.85;;;;;;;27.09;40.79;100602.59;20996694;28;20054;-74
2023/07/09 19:16:27;;;;;;;3.60;3.30;;;;;;;27.12;40.77;100621.56;20995962;28;20036;-74
2023/07/09 19:26:28;;;;;;;4.18;3.78;;;;;;;26.74;40.64;100537.16;20995591;28;20040;-74
2023/07/09 19:36:29;;;;;;;4.53;4.10;;;;;;;26.90;40.60;100579.63;20994560;28;20048;-75
2023/07/09 19:46:33;;;;;;;4.43;4.00;;;;;;;27.04;40.31;100602.72;20994382;28;20048;-76
2023/07/09 19:56:34;;;;;;;4.63;4.22;;;;;;;27.03;40.68;100578.59;20997298;28;20062;-72
2023/07/09 20:06:35;;;;;;;4.07;3.70;;;;;;;26.97;40.43;100583.56;20993604;28;20106;-75
2023/07/09 20:16:37;;;;;;;4.72;4.32;;;;;;;27.00;40.42;100596.13;20992933;28;20078;-73
2023/07/09 20:26:38;;;;;;;4.80;4.13;;;;;;;26.96;40.33;100569.84;20991537;28;20036;-73
2023/07/09 20:36:43;;;;;;;4.30;3.90;;;;;;;26.92;40.48;100554.81;20992288;28;20463;-74
2023/07/09 20:46:44;;;;;;;4.65;4.25;;;;;;;26.90;40.22;100574.81;20990421;28;20565;-74
2023/07/09 20:56:46;;;;;;;4.65;4.18;;;;;;;26.82;40.36;100587.69;20990562;28;20407;-74
2023/07/09 21:06:49;;;;;;;4.32;3.92;;;;;;;26.81;40.53;100593.66;20990202;28;20029;-74
2023/07/09 21:16:56;;;;;;;4.82;4.35;;;;;;;26.71;40.04;100600.41;20990071;28;20024;-74
2023/07/09 21:26:59;;;;;;;4.50;4.10;;;;;;;26.72;40.24;100658.19;21001920;28;20045;-74
2023/07/09 21:37:15;;;;;;;4.72;4.15;;;;;;;26.58;40.10;100665.94;21003708;28;20442;-75
2023/07/09 21:47:19;;;;;;;5.10;4.70;;;;;;;26.63;39.31;100701.44;21002144;28;20055;-75
2023/07/09 21:57:20;;;;;;;3.92;3.63;;;;;;;26.53;39.06;100725.00;21002541;28;20021;-76
2023/07/09 22:07:25;;;;;;;4.30;3.90;;;;;;;26.49;39.02;100743.66;21002208;28;20029;-75
2023/07/09 22:17:26;;;;;;;4.50;4.10;;;;;;;26.50;38.79;100826.66;21001170;28;20467;-76
2023/07/09 22:27:28;;;;;;;4.30;3.90;;;;;;;26.31;38.54;100777.19;21000553;28;20033;-77
2023/07/09 22:37:33;;;;;;;3.80;3.47;;;;;;;26.38;38.52;100775.88;20999115;28;20039;-75
2023/07/09 22:47:35;;;;;;;4.20;3.80;;;;;;;26.34;38.34;100765.34;20998062;28;20048;-78
2023/07/09 22:57:36;;;;;;;3.50;3.20;;;;;;;26.30;38.06;100769.09;21009275;28;20028;-75
2023/07/09 23:07:44;;;;;;;4.10;3.70;;;;;;;26.24;38.04;100759.97;21007966;28;20044;-78
2023/07/09 23:17:45;;;;;;;3.42;3.13;;;;;;;26.21;37.67;100721.38;20997230;28;20498;-74
2023/07/09 23:27:49;;;;;;;3.63;3.33;;;;;;;25.99;37.72;100665.34;20995704;28;20020;-75
2023/07/09 23:37:51;;;;;;;3.40;3.10;;;;;;;26.14;37.57;100645.28;20994314;28;20384;-74
2023/07/09 23:47:57;;;;;;;4.07;3.35;;;;;;;26.10;37.39;100619.03;20993949;28;20117;-75
2023/07/09 23:57:58;;;;;;;3.03;2.72;;;;;;;26.12;38.94;100611.13;20993879;28;20138;-74
